Time;durP1;ratioP1;P1;durP2;ratioP2;P2;SDS_P1;SDS_P2;PMS_P1;PMS_P2;Temp;Humidity;BMP_temperature;BMP_pressure;BME280_temperature;BME280_humidity;BME280_pressure;Samples;Min_cycle;Max_cycle;Signal;HPM_P1;HPM_P2
2023/06/27 00:01:49;;;;;;;4.97;3.33;;;21.50;92.70;;;;;;4975422;28;20449;-79
2023/06/27 00:04:15;;;;;;;3.60;3.27;;;21.40;92.80;;;;;;4931373;28;20442;-80
2023/06/27 00:06:42;;;;;;;4.75;3.60;;;21.30;92.80;;;;;;4948732;28;20434;-80
2023/06/27 00:09:11;;;;;;;5.32;3.38;;;21.20;92.90;;;;;;4951654;28;20932;-80
2023/06/27 00:11:39;;;;;;;4.80;3.70;;;21.10;93.00;;;;;;4906593;28;20824;-80
2023/06/27 00:14:08;;;;;;;5.07;3.33;;;21.00;93.20;;;;;;4948441;28;20424;-80
2023/06/27 00:16:39;;;;;;;5.37;3.40;;;20.90;93.20;;;;;;4913190;28;21153;-81
2023/06/27 00:19:05;;;;;;;5.43;3.50;;;20.90;93.30;;;;;;4949102;28;20517;-79
2023/06/27 00:21:33;;;;;;;6.43;3.65;;;20.90;93.30;;;;;;4923778;28;20430;-79
2023/06/27 00:24:01;;;;;;;3.80;3.40;;;20.90;93.10;;;;;;4933663;28;20439;-79
2023/06/27 00:26:28;;;;;;;4.00;3.60;;;20.90;93.00;;;;;;4929139;28;20839;-80
2023/06/27 00:28:55;;;;;;;4.30;3.42;;;20.90;92.90;;;;;;4918893;28;20440;-79
2023/06/27 00:31:22;;;;;;;4.93;3.53;;;21.00;93.00;;;;;;4937105;28;20418;-79
2023/06/27 00:33:49;;;;;;;4.57;3.65;;;21.00;93.00;;;;;;4916850;28;20461;-80
2023/06/27 00:36:15;;;;;;;5.05;3.60;;;21.10;93.00;;;;;;4923763;28;20454;-79
2023/06/27 00:38:42;;;;;;;5.82;3.47;;;21.10;92.60;;;;;;4947983;28;20965;-80
2023/06/27 00:41:08;;;;;;;7.60;3.67;;;21.20;92.50;;;;;;4929192;28;20446;-80
2023/06/27 00:43:35;;;;;;;5.05;3.45;;;21.10;92.60;;;;;;4942551;28;20767;-79
2023/06/27 00:46:08;;;;;;;5.13;3.80;;;21.10;92.80;;;;;;4919852;28;21191;-79
2023/06/27 00:48:36;;;;;;;7.10;3.90;;;21.10;92.90;;;;;;4923702;28;20432;-81
2023/06/27 00:51:03;;;;;;;6.22;3.63;;;21.10;93.10;;;;;;4902936;28;20427;-81
2023/06/27 00:53:30;;;;;;;5.72;3.90;;;21.00;93.20;;;;;;4911027;28;20434;-81
2023/06/27 00:55:57;;;;;;;5.53;3.95;;;21.00;93.40;;;;;;4928162;28;20605;-81
2023/06/27 00:58:24;;;;;;;4.28;3.88;;;20.90;93.50;;;;;;4922659;28;20463;-81
2023/06/27 01:00:51;;;;;;;4.20;3.80;;;20.80;93.50;;;;;;4923881;28;20442;-81
2023/06/27 01:03:18;;;;;;;4.53;3.58;;;20.70;93.50;;;;;;4930459;28;20415;-81
2023/06/27 01:05:45;;;;;;;4.55;3.70;;;20.80;93.60;;;;;;4919828;28;20434;-81
2023/06/27 01:08:40;;;;;;;5.47;3.80;;;20.70;93.30;;;;;;4952570;28;20423;-81
2023/06/27 01:11:18;;;;;;;5.03;3.60;;;20.70;93.10;;;;;;4921721;28;20433;-81
2023/06/27 01:13:50;;;;;;;4.20;3.60;;;20.70;93.30;;;;;;4921478;28;21047;-81
2023/06/27 01:16:21;;;;;;;4.30;3.55;;;20.60;93.40;;;;;;4942003;28;20553;-81
2023/06/27 01:18:50;;;;;;;4.10;3.70;;;20.60;93.40;;;;;;4940730;28;20427;-81
2023/06/27 01:21:20;;;;;;;4.68;3.70;;;20.70;93.40;;;;;;4939973;28;20463;-80
2023/06/27 01:24:02;;;;;;;4.43;3.95;;;20.60;93.30;;;;;;4923271;28;20420;-81
2023/06/27 01:26:30;;;;;;;4.20;3.63;;;20.60;93.30;;;;;;4923834;28;20437;-81
2023/06/27 01:28:56;;;;;;;5.05;3.80;;;20.60;93.40;;;;;;4920598;28;20447;-81
2023/06/27 01:31:44;;;;;;;5.47;3.70;;;20.60;93.30;;;;;;4912793;28;20427;-81
2023/06/27 01:34:15;;;;;;;6.68;4.10;;;20.60;93.30;;;;;;4945258;28;20423;-81
2023/06/27 01:36:50;;;;;;;5.35;3.40;;;20.50;93.20;;;;;;4927434;28;20439;-81
2023/06/27 01:39:35;;;;;;;4.68;3.60;;;20.50;93.20;;;;;;4924195;28;20419;-81
2023/06/27 01:42:15;;;;;;;5.20;3.90;;;20.50;93.30;;;;;;4943004;28;20429;-81
2023/06/27 01:44:48;;;;;;;4.47;3.80;;;20.50;93.40;;;;;;4927795;28;21096;-81
2023/06/27 01:47:16;;;;;;;5.05;3.72;;;20.50;93.50;;;;;;5005491;28;20549;-81
2023/06/27 01:49:43;;;;;;;5.90;4.13;;;20.50;93.50;;;;;;4922631;28;20438;-81
2023/06/27 01:52:14;;;;;;;4.55;3.90;;;20.50;93.50;;;;;;4923772;28;20423;-81
2023/06/27 01:54:43;;;;;;;4.53;3.92;;;20.40;93.70;;;;;;4945074;28;20462;-81
2023/06/27 01:57:11;;;;;;;6.10;4.20;;;20.50;93.80;;;;;;4941240;28;20451;-81
2023/06/27 01:59:38;;;;;;;4.65;3.97;;;20.50;93.90;;;;;;4918968;28;20940;-81
2023/06/27 02:02:05;;;;;;;6.25;4.28;;;20.60;94.10;;;;;;4949767;28;21140;-81
2023/06/27 02:04:32;;;;;;;6.20;4.60;;;20.70;94.20;;;;;;4922076;28;20434;-80
2023/06/27 02:06:59;;;;;;;7.30;5.30;;;20.80;94.60;;;;;;4920837;28;20655;-79
2023/06/27 02:09:26;;;;;;;6.30;5.05;;;20.80;95.00;;;;;;4946799;28;20494;-80
2023/06/27 02:11:52;;;;;;;5.60;5.00;;;20.80;95.10;;;;;;4933244;28;20475;-77
2023/06/27 02:14:18;;;;;;;6.95;5.28;;;20.80;95.30;;;;;;4947694;28;20422;-77
2023/06/27 02:16:44;;;;;;;6.35;5.60;;;20.80;95.60;;;;;;4950770;28;20423;-77
2023/06/27 02:19:11;;;;;;;6.72;5.53;;;20.80;95.70;;;;;;4926650;28;20521;-77
2023/06/27 02:21:37;;;;;;;6.25;5.65;;;20.70;96.10;;;;;;4909978;28;20419;-77
2023/06/27 02:24:04;;;;;;;7.25;6.10;;;20.70;96.20;;;;;;4928377;28;22514;-77
2023/06/27 02:26:30;;;;;;;6.25;5.65;;;20.70;96.40;;;;;;4924508;28;20432;-79
2023/06/27 02:28:56;;;;;;;6.53;5.93;;;20.70;96.60;;;;;;4926586;28;20573;-79
2023/06/27 02:31:23;;;;;;;7.82;6.05;;;20.70;96.70;;;;;;4906158;28;20429;-80
2023/06/27 02:33:49;;;;;;;8.65;6.07;;;20.70;96.80;;;;;;4922895;28;20416;-79
2023/06/27 02:36:16;;;;;;;8.73;6.40;;;20.70;96.90;;;;;;4948307;28;21025;-80
2023/06/27 02:38:43;;;;;;;7.00;6.30;;;20.70;97.00;;;;;;4937937;28;20509;-79
2023/06/27 02:41:09;;;;;;;7.13;6.43;;;20.80;97.10;;;;;;4925743;28;20447;-79
2023/06/27 02:43:35;;;;;;;9.10;6.55;;;20.80;97.40;;;;;;4922143;28;20453;-79
2023/06/27 02:46:01;;;;;;;9.13;6.63;;;20.90;97.50;;;;;;4935398;28;20432;-79
2023/06/27 02:48:28;;;;;;;6.93;6.22;;;20.90;97.60;;;;;;4920261;28;20432;-79
2023/06/27 02:50:54;;;;;;;9.45;6.40;;;20.80;97.70;;;;;;4921458;28;20427;-79
2023/06/27 02:53:20;;;;;;;7.60;6.53;;;20.80;97.70;;;;;;4924263;28;20461;-79
2023/06/27 02:55:47;;;;;;;7.22;6.00;;;20.80;97.80;;;;;;4926805;28;20429;-79
2023/06/27 02:58:13;;;;;;;8.17;6.33;;;20.80;97.90;;;;;;4923492;28;20432;-79
2023/06/27 03:00:40;;;;;;;7.68;6.13;;;20.90;98.00;;;;;;4933790;28;20419;-79
2023/06/27 03:03:06;;;;;;;7.00;6.30;;;20.90;98.10;;;;;;5002745;28;20436;-77
2023/06/27 03:05:32;;;;;;;8.45;6.50;;;20.90;98.10;;;;;;4916752;28;20938;-77
2023/06/27 03:07:58;;;;;;;7.55;5.57;;;20.90;98.10;;;;;;4922226;28;20439;-76
2023/06/27 03:10:26;;;;;;;6.40;5.80;;;20.90;98.00;;;;;;4919989;28;20421;-79
2023/06/27 03:12:52;;;;;;;6.43;5.72;;;21.00;98.10;;;;;;4951661;28;20451;-78
2023/06/27 03:15:18;;;;;;;6.60;5.38;;;21.00;98.10;;;;;;4929218;28;20431;-79
2023/06/27 03:17:44;;;;;;;6.30;5.70;;;21.00;98.20;;;;;;4905550;28;20516;-80
2023/06/27 03:20:11;;;;;;;7.50;5.73;;;21.00;98.10;;;;;;4920404;28;20427;-80
2023/06/27 03:22:37;;;;;;;6.10;5.50;;;21.00;98.10;;;;;;4928503;28;20434;-78
2023/06/27 03:25:04;;;;;;;10.13;5.67;;;21.00;98.10;;;;;;4923399;28;20442;-77
2023/06/27 03:27:31;;;;;;;6.30;5.60;;;21.00;98.50;;;;;;4918420;28;20433;-78
2023/06/27 03:29:58;;;;;;;6.32;5.57;;;21.10;98.20;;;;;;4943394;28;20435;-77
2023/06/27 03:32:24;;;;;;;6.90;5.10;;;21.10;98.30;;;;;;4924731;28;20432;-77
2023/06/27 03:34:51;;;;;;;6.78;5.25;;;21.10;98.30;;;;;;4945256;28;20424;-80
2023/06/27 03:37:19;;;;;;;7.40;5.10;;;21.10;98.30;;;;;;4940265;28;21073;-80
2023/06/27 03:39:45;;;;;;;5.53;4.90;;;21.10;98.30;;;;;;4923477;28;20872;-81
2023/06/27 03:42:12;;;;;;;9.18;5.30;;;21.10;98.30;;;;;;4937838;28;20446;-80
2023/06/27 03:44:38;;;;;;;6.70;5.07;;;21.10;98.40;;;;;;4935632;28;20452;-80
2023/06/27 03:47:05;;;;;;;8.23;4.90;;;21.10;98.40;;;;;;4947126;28;20428;-80
2023/06/27 03:49:31;;;;;;;7.25;5.03;;;21.20;98.40;;;;;;4926071;28;20435;-81
2023/06/27 03:51:58;;;;;;;6.45;5.18;;;21.10;98.80;;;;;;4935414;28;20427;-80
2023/06/27 03:54:24;;;;;;;6.70;5.38;;;21.20;98.50;;;;;;4939667;28;20507;-79
2023/06/27 03:56:50;;;;;;;6.32;5.15;;;21.20;98.60;;;;;;4915770;28;20490;-79
2023/06/27 03:59:17;;;;;;;7.20;5.30;;;21.20;98.70;;;;;;4928140;28;20715;-79
2023/06/27 04:01:44;;;;;;;5.63;4.88;;;21.20;98.70;;;;;;4915122;28;21117;-79
2023/06/27 04:04:10;;;;;;;7.97;4.53;;;21.20;98.70;;;;;;4929737;28;20926;-80
2023/06/27 04:06:36;;;;;;;5.15;4.65;;;21.30;98.80;;;;;;4918806;28;21432;-80
2023/06/27 04:09:04;;;;;;;6.07;5.22;;;21.30;98.90;;;;;;4904576;28;20762;-79
2023/06/27 04:11:31;;;;;;;9.63;4.88;;;21.30;98.90;;;;;;4947662;28;20465;-79
2023/06/27 04:14:02;;;;;;;8.73;5.20;;;21.40;99.20;;;;;;4946191;28;20476;-79
2023/06/27 04:16:28;;;;;;;5.35;4.70;;;21.40;99.10;;;;;;4934706;28;20415;-80
2023/06/27 04:18:55;;;;;;;6.50;4.90;;;21.50;99.20;;;;;;4936019;28;20423;-80
2023/06/27 04:21:27;;;;;;;6.68;5.00;;;21.50;99.30;;;;;;4915760;28;20525;-80
2023/06/27 04:23:54;;;;;;;6.10;4.53;;;21.60;99.40;;;;;;4930196;28;20569;-79
2023/06/27 04:26:20;;;;;;;5.63;5.13;;;21.60;99.40;;;;;;4928158;28;20475;-80
2023/06/27 04:28:48;;;;;;;6.35;4.72;;;21.70;99.40;;;;;;4937185;28;21202;-80
2023/06/27 04:31:14;;;;;;;7.43;5.10;;;21.80;99.40;;;;;;4914693;28;20429;-80
2023/06/27 04:33:41;;;;;;;5.70;5.10;;;21.90;99.50;;;;;;4939014;28;20425;-80
2023/06/27 04:36:09;;;;;;;5.63;4.93;;;22.00;99.30;;;;;;4947498;28;20430;-80
2023/06/27 04:38:39;;;;;;;5.75;4.97;;;22.10;99.60;;;;;;4922678;28;20510;-80
2023/06/27 04:41:10;;;;;;;7.60;5.00;;;22.10;99.60;;;;;;4955057;28;21022;-80
2023/06/27 04:43:39;;;;;;;5.90;5.30;;;22.20;99.40;;;;;;4928495;28;20423;-80
2023/06/27 04:46:05;;;;;;;5.53;4.88;;;22.30;99.40;;;;;;4943082;28;21102;-80
2023/06/27 04:48:33;;;;;;;5.60;5.00;;;22.30;99.30;;;;;;4924331;28;20430;-81
2023/06/27 04:50:59;;;;;;;5.93;5.00;;;22.40;99.40;;;;;;4930971;28;20427;-81
2023/06/27 04:53:26;;;;;;;6.32;4.82;;;22.40;99.10;;;;;;4941725;28;20431;-81
2023/06/27 04:55:53;;;;;;;5.65;4.95;;;22.50;99.00;;;;;;4948473;28;20444;-80
2023/06/27 04:58:20;;;;;;;5.95;5.05;;;22.60;99.00;;;;;;4921483;28;20417;-77
2023/06/27 05:00:48;;;;;;;6.75;5.13;;;22.60;98.90;;;;;;4925330;28;20430;-77
2023/06/27 05:03:18;;;;;;;5.90;5.18;;;22.70;98.90;;;;;;4949844;28;20434;-77
2023/06/27 05:05:44;;;;;;;10.73;5.30;;;22.70;99.00;;;;;;4927721;28;20432;-77
2023/06/27 05:08:11;;;;;;;7.60;5.20;;;22.70;99.20;;;;;;4948806;28;20851;-79
2023/06/27 05:10:38;;;;;;;6.70;5.45;;;22.80;99.30;;;;;;4920436;28;20482;-79
2023/06/27 05:13:04;;;;;;;6.88;5.57;;;22.80;99.50;;;;;;4926763;28;20427;-79
2023/06/27 05:15:30;;;;;;;8.30;5.40;;;22.90;99.40;;;;;;4926406;28;20477;-79
2023/06/27 05:18:09;;;;;;;6.15;5.20;;;23.00;99.10;;;;;;4918272;28;20433;-79
2023/06/27 05:20:36;;;;;;;7.70;5.20;;;23.00;98.70;;;;;;4948826;28;20590;-79
2023/06/27 05:23:02;;;;;;;7.32;5.15;;;23.10;98.20;;;;;;4924140;28;20462;-78
2023/06/27 05:25:31;;;;;;;6.35;5.22;;;23.20;98.10;;;;;;4937534;28;20541;-78
2023/06/27 05:27:58;;;;;;;8.07;4.93;;;23.20;98.30;;;;;;4926063;28;20486;-78
2023/06/27 05:30:25;;;;;;;6.53;4.63;;;23.30;97.80;;;;;;4923647;28;20447;-79
2023/06/27 05:32:51;;;;;;;8.30;5.13;;;23.40;97.60;;;;;;4917878;28;20479;-79
2023/06/27 05:35:18;;;;;;;7.90;4.97;;;23.40;97.70;;;;;;4930494;28;20526;-80
2023/06/27 05:37:45;;;;;;;6.72;4.70;;;23.50;97.40;;;;;;4999957;28;20542;-80
2023/06/27 05:40:11;;;;;;;6.10;4.65;;;23.60;97.40;;;;;;4931525;28;20430;-80
2023/06/27 05:42:38;;;;;;;7.70;5.13;;;23.60;97.60;;;;;;4918087;28;20430;-80
2023/06/27 05:45:05;;;;;;;8.43;4.93;;;23.70;97.20;;;;;;4952573;28;20423;-80
2023/06/27 05:47:32;;;;;;;6.45;4.70;;;23.90;97.20;;;;;;4938095;28;20795;-80
2023/06/27 05:49:58;;;;;;;8.27;4.60;;;23.90;96.90;;;;;;4932483;28;20417;-80
2023/06/27 05:52:24;;;;;;;6.60;4.60;;;24.10;96.70;;;;;;4922957;28;20437;-80
2023/06/27 05:54:51;;;;;;;8.07;4.80;;;24.20;96.40;;;;;;4944559;28;20423;-78
2023/06/27 05:57:18;;;;;;;8.40;4.63;;;24.30;96.30;;;;;;4924291;28;20449;-78
2023/06/27 05:59:45;;;;;;;9.57;4.72;;;24.40;95.70;;;;;;4924080;28;20945;-77
2023/06/27 06:02:11;;;;;;;9.80;4.93;;;24.60;95.60;;;;;;4922437;28;20414;-78
2023/06/27 06:04:38;;;;;;;7.88;4.90;;;24.70;95.80;;;;;;4924820;28;21733;-78
2023/06/27 06:07:04;;;;;;;6.50;4.83;;;24.80;95.80;;;;;;4939447;28;22083;-77
2023/06/27 06:09:31;;;;;;;7.40;4.85;;;24.90;95.80;;;;;;4921156;28;20557;-77
2023/06/27 06:11:58;;;;;;;11.63;4.57;;;24.90;96.00;;;;;;4944911;28;20580;-78
2023/06/27 06:14:24;;;;;;;10.20;5.18;;;25.10;95.90;;;;;;4946086;28;20417;-78
2023/06/27 06:16:50;;;;;;;8.43;4.65;;;25.20;96.00;;;;;;4920116;28;20838;-78
2023/06/27 06:19:18;;;;;;;7.53;5.15;;;25.10;96.20;;;;;;4922782;28;20445;-78
2023/06/27 06:21:45;;;;;;;6.33;5.20;;;25.20;96.70;;;;;;4904624;28;20459;-78
2023/06/27 06:24:12;;;;;;;6.38;4.93;;;25.20;96.60;;;;;;4918641;28;20425;-78
2023/06/27 06:26:38;;;;;;;9.98;4.90;;;25.20;96.70;;;;;;4943277;28;20423;-79
2023/06/27 06:29:06;;;;;;;6.22;4.68;;;25.40;96.60;;;;;;4920043;28;21059;-73
2023/06/27 06:31:32;;;;;;;9.07;5.03;;;25.50;96.10;;;;;;4932384;28;20560;-73
2023/06/27 06:33:58;;;;;;;5.78;4.78;;;25.60;96.30;;;;;;4925702;28;20431;-73
2023/06/27 06:36:25;;;;;;;8.98;5.03;;;25.60;96.50;;;;;;4920963;28;20483;-72
2023/06/27 06:38:51;;;;;;;6.23;4.70;;;25.80;96.40;;;;;;4920393;28;20442;-73
2023/06/27 06:41:18;;;;;;;9.03;4.90;;;25.80;96.30;;;;;;4921793;28;20451;-73
2023/06/27 06:43:45;;;;;;;9.50;4.80;;;26.00;96.20;;;;;;4920262;28;20432;-73
2023/06/27 06:46:11;;;;;;;6.53;4.70;;;26.00;96.40;;;;;;4915822;28;20455;-73
2023/06/27 06:48:38;;;;;;;5.80;4.80;;;26.10;96.40;;;;;;4925146;28;20439;-73
2023/06/27 06:51:04;;;;;;;7.75;5.00;;;26.20;96.40;;;;;;4922425;28;20428;-72
2023/06/27 06:53:30;;;;;;;8.60;5.00;;;26.30;96.50;;;;;;4916640;28;20431;-72
2023/06/27 06:55:56;;;;;;;6.85;5.00;;;26.30;96.30;;;;;;4975730;28;20449;-72
2023/06/27 06:58:22;;;;;;;6.60;4.87;;;26.50;96.10;;;;;;4932717;28;20429;-72
2023/06/27 07:00:51;;;;;;;7.30;4.65;;;26.50;96.40;;;;;;4936365;28;20440;-73
2023/06/27 07:03:17;;;;;;;8.32;5.20;;;26.60;96.40;;;;;;4918171;28;20431;-73
2023/06/27 07:05:44;;;;;;;7.13;5.03;;;26.80;96.10;;;;;;4940871;28;20439;-72
2023/06/27 07:08:10;;;;;;;8.40;5.10;;;26.80;96.20;;;;;;4916824;28;20428;-72
2023/06/27 07:10:37;;;;;;;9.73;4.90;;;27.00;96.10;;;;;;4932633;28;20451;-72
2023/06/27 07:13:05;;;;;;;7.20;4.75;;;27.00;96.20;;;;;;4924874;28;20455;-72
2023/06/27 07:15:33;;;;;;;8.93;4.80;;;27.10;96.40;;;;;;4917038;28;20423;-72
2023/06/27 07:17:59;;;;;;;7.40;4.78;;;27.20;96.20;;;;;;4932341;28;20466;-73
2023/06/27 07:20:25;;;;;;;6.75;4.55;;;27.30;96.60;;;;;;4914404;28;20435;-73
2023/06/27 07:22:52;;;;;;;5.97;4.57;;;27.40;96.90;;;;;;4913936;28;21287;-73
2023/06/27 07:25:19;;;;;;;7.03;4.80;;;27.50;96.60;;;;;;4938176;28;20476;-73
2023/06/27 07:27:46;;;;;;;9.15;4.70;;;27.60;97.50;;;;;;4940982;28;20462;-73
2023/06/27 07:30:13;;;;;;;9.45;4.80;;;27.60;97.60;;;;;;4921939;28;20444;-73
2023/06/27 07:32:39;;;;;;;8.27;4.43;;;27.70;97.60;;;;;;4921666;28;20427;-73
2023/06/27 07:35:06;;;;;;;8.07;4.85;;;27.70;98.40;;;;;;4923755;28;20826;-73
2023/06/27 07:37:32;;;;;;;6.50;4.43;;;27.70;98.60;;;;;;4918680;28;20443;-73
2023/06/27 07:39:59;;;;;;;9.35;4.70;;;27.80;98.70;;;;;;4918079;28;20429;-73
2023/06/27 07:42:26;;;;;;;6.28;4.43;;;27.90;99.10;;;;;;4921654;28;20462;-73
2023/06/27 07:44:53;;;;;;;8.23;4.40;;;27.90;99.00;;;;;;4945640;28;20427;-73
2023/06/27 07:47:19;;;;;;;10.97;5.00;;;28.10;99.50;;;;;;4921918;28;20424;-73
2023/06/27 07:49:46;;;;;;;6.78;4.70;;;28.10;99.20;;;;;;4920860;28;21375;-73
2023/06/27 07:52:12;;;;;;;8.82;4.78;;;28.10;99.00;;;;;;4911728;28;20428;-73
2023/06/27 07:54:39;;;;;;;7.05;4.80;;;28.20;99.50;;;;;;4913669;28;20537;-73
2023/06/27 07:57:06;;;;;;;12.30;4.80;;;28.30;99.90;;;;;;4912095;28;20427;-73
2023/06/27 07:59:33;;;;;;;8.50;4.65;;;28.40;99.90;;;;;;4915810;28;20433;-73
2023/06/27 08:01:59;;;;;;;6.78;4.53;;;28.40;99.90;;;;;;4917312;28;20961;-73
2023/06/27 08:04:25;;;;;;;8.82;4.60;;;28.50;99.90;;;;;;4916223;28;20441;-73
2023/06/27 08:06:53;;;;;;;8.50;4.80;;;28.50;99.90;;;;;;4911873;28;20527;-73
2023/06/27 08:09:20;;;;;;;11.27;4.83;;;28.50;99.90;;;;;;4916324;28;20420;-73
2023/06/27 08:11:47;;;;;;;7.95;4.90;;;28.50;99.90;;;;;;4921088;28;20922;-73
2023/06/27 08:14:13;;;;;;;7.63;4.68;;;28.70;99.90;;;;;;4928592;28;20420;-73
2023/06/27 08:16:39;;;;;;;8.95;4.97;;;28.80;99.90;;;;;;4915878;28;20419;-73
2023/06/27 08:19:06;;;;;;;9.05;4.68;;;28.80;99.90;;;;;;4925361;28;20416;-73
2023/06/27 08:21:32;;;;;;;9.65;4.80;;;28.90;99.90;;;;;;4925223;28;20544;-73
2023/06/27 08:23:58;;;;;;;9.68;4.70;;;29.10;99.90;;;;;;4936050;28;20480;-73
2023/06/27 08:26:25;;;;;;;7.00;4.43;;;29.20;99.90;;;;;;4924975;28;20473;-73
2023/06/27 08:28:52;;;;;;;8.07;4.47;;;29.30;99.90;;;;;;4919467;28;20522;-73
2023/06/27 08:31:18;;;;;;;8.13;4.70;;;29.40;99.90;;;;;;4913646;28;20427;-73
2023/06/27 08:33:45;;;;;;;12.27;4.97;;;29.50;99.90;;;;;;4916805;28;20430;-73
2023/06/27 08:36:11;;;;;;;9.73;4.60;;;29.60;99.90;;;;;;4927137;28;20471;-74
2023/06/27 08:38:37;;;;;;;9.98;4.63;;;29.80;99.90;;;;;;4917832;28;20427;-74
2023/06/27 08:41:04;;;;;;;15.07;4.60;;;30.00;99.90;;;;;;4916429;28;21178;-73
2023/06/27 08:43:30;;;;;;;8.83;5.00;;;29.90;99.90;;;;;;4897437;28;20421;-73
2023/06/27 08:45:57;;;;;;;7.75;4.30;;;30.00;99.90;;;;;;4916713;28;20481;-73
2023/06/27 08:48:26;;;;;;;11.87;4.97;;;30.10;99.90;;;;;;4938226;28;20604;-74
2023/06/27 08:50:56;;;;;;;9.88;4.78;;;30.20;99.90;;;;;;4915896;28;20436;-74
2023/06/27 08:53:27;;;;;;;14.63;5.00;;;30.20;99.90;;;;;;4942945;28;20427;-73
2023/06/27 08:56:09;;;;;;;7.85;4.60;;;30.30;99.90;;;;;;4931027;28;20517;-75
2023/06/27 08:58:55;;;;;;;7.85;4.65;;;30.40;99.90;;;;;;4920567;28;21330;-76
2023/06/27 09:01:27;;;;;;;9.55;4.65;;;30.60;99.90;;;;;;4926642;28;20517;-75
2023/06/27 09:03:53;;;;;;;8.10;4.75;;;30.60;99.90;;;;;;4948906;28;20524;-73
2023/06/27 09:06:20;;;;;;;14.18;4.82;;;30.60;99.90;;;;;;4921298;28;20417;-73
2023/06/27 09:08:49;;;;;;;11.90;4.60;;;30.70;99.90;;;;;;4917048;28;21117;-73
2023/06/27 09:11:16;;;;;;;10.53;4.73;;;30.70;99.90;;;;;;4920401;28;20442;-73
2023/06/27 09:13:42;;;;;;;9.85;4.68;;;31.00;99.90;;;;;;4948323;28;20506;-73
2023/06/27 09:16:09;;;;;;;8.90;4.80;;;31.00;99.90;;;;;;4925616;28;20431;-73
2023/06/27 09:18:37;;;;;;;11.07;4.63;;;31.10;99.90;;;;;;4916876;28;20926;-73
2023/06/27 09:21:04;;;;;;;7.40;4.70;;;31.00;99.90;;;;;;4920671;28;20433;-73
2023/06/27 09:23:31;;;;;;;9.88;4.90;;;31.10;99.90;;;;;;4926259;28;20837;-73
2023/06/27 09:26:12;;;;;;;9.60;4.68;;;31.20;99.90;;;;;;4917235;28;20436;-73
2023/06/27 09:28:51;;;;;;;9.13;4.57;;;31.30;99.90;;;;;;4926457;28;20965;-73
2023/06/27 09:31:20;;;;;;;7.63;4.70;;;31.40;99.90;;;;;;4914417;28;20421;-73
2023/06/27 09:33:48;;;;;;;8.25;4.70;;;31.40;99.90;;;;;;4945389;28;20432;-73
2023/06/27 09:36:41;;;;;;;10.38;4.60;;;31.50;99.90;;;;;;4949292;28;20894;-73
2023/06/27 09:39:10;;;;;;;10.25;4.93;;;31.50;99.90;;;;;;4919221;28;20439;-73
2023/06/27 09:41:46;;;;;;;10.68;4.80;;;31.60;99.90;;;;;;4941057;28;20617;-73
2023/06/27 09:44:18;;;;;;;9.68;5.18;;;31.70;99.90;;;;;;4922685;28;20419;-73
2023/06/27 09:46:47;;;;;;;8.02;4.32;;;32.00;99.90;;;;;;4948116;28;20967;-73
2023/06/27 09:49:15;;;;;;;11.37;4.87;;;32.10;99.90;;;;;;4918169;28;20436;-73
2023/06/27 09:51:46;;;;;;;11.70;4.73;;;32.00;99.90;;;;;;4931347;28;20459;-73
2023/06/27 09:54:21;;;;;;;7.72;4.88;;;32.00;99.90;;;;;;4940384;28;21013;-73
2023/06/27 09:56:51;;;;;;;8.35;4.60;;;32.00;99.90;;;;;;4923042;28;20427;-73
2023/06/27 09:59:25;;;;;;;9.93;4.55;;;32.00;99.90;;;;;;4927217;28;20431;-73
2023/06/27 10:01:55;;;;;;;7.75;4.43;;;31.90;99.90;;;;;;4921081;28;21402;-73
2023/06/27 10:04:23;;;;;;;11.48;4.90;;;32.00;99.90;;;;;;4924563;28;20559;-73
2023/06/27 10:06:50;;;;;;;11.50;5.18;;;32.10;99.90;;;;;;4918908;28;20993;-73
2023/06/27 10:09:16;;;;;;;10.40;4.70;;;32.10;99.90;;;;;;4925459;28;20461;-73
2023/06/27 10:11:43;;;;;;;8.02;4.57;;;32.10;99.90;;;;;;4905231;28;20546;-73
2023/06/27 10:14:09;;;;;;;9.27;4.70;;;32.20;99.90;;;;;;4903497;28;20427;-73
2023/06/27 10:16:37;;;;;;;9.82;4.63;;;32.30;99.40;;;;;;4916021;28;20425;-73
2023/06/27 10:19:05;;;;;;;8.45;4.53;;;32.20;99.30;;;;;;4908292;28;20434;-73
2023/06/27 10:21:32;;;;;;;7.28;4.28;;;32.10;99.00;;;;;;4902442;28;20438;-73
2023/06/27 10:24:02;;;;;;;12.35;4.82;;;32.10;99.60;;;;;;4923041;28;20484;-73
2023/06/27 10:26:29;;;;;;;11.30;4.70;;;32.10;99.30;;;;;;4914638;28;20429;-73
2023/06/27 10:28:56;;;;;;;7.88;4.70;;;32.10;99.90;;;;;;4917525;28;20528;-73
2023/06/27 10:31:52;;;;;;;9.45;4.43;;;31.90;99.30;;;;;;4913619;28;20426;-73
2023/06/27 10:34:28;;;;;;;8.33;4.70;;;31.80;99.50;;;;;;4899938;28;20563;-73
2023/06/27 10:37:02;;;;;;;11.98;4.68;;;31.80;99.90;;;;;;4911928;28;25393;-73
2023/06/27 10:39:40;;;;;;;8.98;4.40;;;31.90;99.80;;;;;;4910428;28;20431;-73
2023/06/27 10:42:25;;;;;;;10.73;4.75;;;31.90;99.60;;;;;;4917333;28;20432;-73
2023/06/27 10:45:08;;;;;;;10.95;4.82;;;31.90;99.80;;;;;;4939313;28;20515;-73
2023/06/27 10:47:44;;;;;;;9.05;4.65;;;31.90;99.60;;;;;;4921529;28;20984;-73
2023/06/27 10:50:15;;;;;;;8.85;4.68;;;31.80;99.00;;;;;;4916789;28;20456;-73
2023/06/27 10:53:00;;;;;;;8.77;4.32;;;31.80;99.90;;;;;;4919405;28;20418;-73
2023/06/27 10:55:32;;;;;;;10.03;4.50;;;31.80;99.90;;;;;;4916710;28;20419;-73
2023/06/27 10:58:10;;;;;;;10.23;4.70;;;31.70;99.10;;;;;;4913546;28;20592;-73
2023/06/27 11:00:50;;;;;;;10.13;4.60;;;31.50;98.90;;;;;;4915167;28;20428;-73
2023/06/27 11:03:22;;;;;;;13.10;4.68;;;31.50;99.00;;;;;;4924504;28;20465;-73
2023/06/27 11:05:54;;;;;;;9.13;4.93;;;31.50;99.40;;;;;;4919418;28;22470;-73
2023/06/27 11:08:27;;;;;;;8.05;4.40;;;31.50;98.80;;;;;;4916248;28;20425;-73
2023/06/27 11:11:08;;;;;;;7.97;4.68;;;31.50;98.50;;;;;;4927232;28;20532;-73
2023/06/27 11:13:45;;;;;;;10.82;4.63;;;31.40;98.20;;;;;;4915015;28;20427;-73
2023/06/27 11:16:12;;;;;;;8.15;4.47;;;31.40;98.70;;;;;;4939877;28;20872;-73
2023/06/27 11:18:39;;;;;;;11.27;4.53;;;31.50;98.30;;;;;;4926426;28;20420;-73
2023/06/27 11:21:05;;;;;;;9.07;4.32;;;31.50;98.10;;;;;;4916633;28;20435;-73
2023/06/27 11:23:33;;;;;;;7.10;4.30;;;31.60;98.00;;;;;;4917193;28;20976;-73
2023/06/27 11:26:00;;;;;;;9.38;4.53;;;31.60;98.00;;;;;;4914123;28;20463;-73
2023/06/27 11:28:26;;;;;;;9.30;4.70;;;31.60;98.20;;;;;;4919044;28;20432;-73
2023/06/27 11:31:01;;;;;;;8.70;4.40;;;31.70;97.50;;;;;;4912345;28;20487;-73
2023/06/27 11:33:28;;;;;;;9.52;4.30;;;31.70;97.60;;;;;;4917697;28;20783;-73
2023/06/27 11:36:04;;;;;;;9.77;4.68;;;31.70;97.90;;;;;;4934547;28;20500;-73
2023/06/27 11:38:30;;;;;;;9.10;4.95;;;31.70;98.10;;;;;;4935769;28;20441;-73
2023/06/27 11:40:58;;;;;;;11.15;4.28;;;31.70;98.00;;;;;;4903362;28;20436;-73
2023/06/27 11:43:25;;;;;;;7.50;4.25;;;31.70;98.80;;;;;;4913373;28;20433;-73
2023/06/27 11:45:54;;;;;;;8.60;4.60;;;31.80;98.70;;;;;;4912836;28;20412;-73
2023/06/27 11:48:20;;;;;;;7.53;4.68;;;31.80;98.80;;;;;;4930366;28;20467;-73
2023/06/27 11:51:06;;;;;;;10.75;4.70;;;31.80;98.60;;;;;;4917011;28;20429;-73
2023/06/27 11:53:33;;;;;;;10.37;4.60;;;31.80;98.20;;;;;;4939635;28;20417;-73
2023/06/27 11:56:00;;;;;;;12.45;4.55;;;31.80;98.50;;;;;;4937535;28;20569;-73
2023/06/27 11:58:47;;;;;;;7.93;4.35;;;31.80;98.50;;;;;;4913921;28;20440;-73
2023/06/27 12:01:16;;;;;;;12.60;4.90;;;31.70;99.10;;;;;;4941476;28;20464;-73
2023/06/27 12:03:50;;;;;;;9.40;4.70;;;31.70;98.80;;;;;;4910809;28;20428;-73
2023/06/27 12:06:33;;;;;;;9.18;4.78;;;31.70;99.50;;;;;;4938472;28;20504;-73
2023/06/27 12:09:00;;;;;;;12.15;5.20;;;31.70;98.30;;;;;;4918770;28;21135;-73
2023/06/27 12:11:32;;;;;;;9.47;4.97;;;31.70;98.30;;;;;;4912014;28;20439;-73
2023/06/27 12:13:58;;;;;;;12.50;4.87;;;31.70;98.60;;;;;;4936828;28;20429;-73
2023/06/27 12:16:29;;;;;;;11.95;5.07;;;31.70;98.80;;;;;;4918878;28;20487;-73
2023/06/27 12:19:11;;;;;;;9.77;5.07;;;31.60;98.70;;;;;;4940095;28;20419;-73
2023/06/27 12:21:38;;;;;;;13.47;5.17;;;31.40;99.20;;;;;;4940654;28;20429;-73
2023/06/27 12:24:05;;;;;;;9.85;4.40;;;31.40;99.90;;;;;;4921036;28;20424;-73
2023/06/27 12:26:32;;;;;;;7.37;4.50;;;31.40;99.90;;;;;;4924060;28;20463;-73
2023/06/27 12:29:01;;;;;;;11.73;4.93;;;31.50;99.90;;;;;;4926764;28;22606;-73
2023/06/27 12:31:29;;;;;;;9.73;5.00;;;31.60;99.00;;;;;;4921778;28;20423;-73
2023/06/27 12:33:59;;;;;;;7.82;4.90;;;31.60;98.70;;;;;;4981365;28;20455;-72
2023/06/27 12:36:27;;;;;;;9.20;4.82;;;31.50;98.60;;;;;;4925938;28;20483;-72
2023/06/27 12:38:54;;;;;;;10.02;4.78;;;31.40;98.40;;;;;;4927361;28;22117;-72
2023/06/27 12:41:26;;;;;;;9.00;4.60;;;31.40;99.50;;;;;;4916349;28;20512;-73
2023/06/27 12:43:53;;;;;;;7.72;4.47;;;31.40;98.30;;;;;;4919472;28;21382;-73
2023/06/27 12:46:20;;;;;;;9.63;4.80;;;31.50;97.80;;;;;;4920236;28;20419;-73
2023/06/27 12:48:47;;;;;;;8.73;5.03;;;31.30;98.10;;;;;;4918525;28;20428;-73
2023/06/27 12:51:15;;;;;;;9.10;4.93;;;31.20;97.80;;;;;;4917639;28;20428;-73
2023/06/27 12:53:43;;;;;;;10.93;5.00;;;31.10;98.00;;;;;;4918168;28;20889;-73